Pedro Bay, AK

12:50 PM AKDT on July 04, 2015 (GMT -0800)
Iliamna | | Change Station
CLOSE
Current Station
Airport
Location: Iliamna,
Elevation: 161 ft
Nearby Weather Stations

Elev 161 ft 59.75 °N, 154.91 °W | Updated 57 minutes ago

Light Rain
Light Rain
56 °F
Feels Like 56 °F
N
18
Wind Variable Wind from East
Gusts 30 mph

Today
High -- | Low -- °F
--% Chance of Precip.
Yesterday
High -- | Low -- °F
Precip. -- in
5:08 AM 11:39 PM
Waning Gibbous, 90% visible
Pressure 30.00 in
Visibility 10.0 miles
Clouds Few 2000 ft
Mostly Cloudy 4400 ft
Overcast 5500 ft
Dew Point 50 °F
Humidity 80%
Rainfall 0.08 in
Snow Depth Not available.
UV 2 out of 12
Pollen Not available.
Air Quality Not available.
Flu Activity Not available.
METAR PAIL 041953Z 10016G26KT 10SM -RA FEW020 BKN044 OVC055 13/10 A2999 RMK AO2 PK WND 10026/1949 SLP157 P0000 T01330100

More Conditions Fewer Conditions

Pressure 30.00 in
Visibility 10.0 miles
Clouds Few 2000 ft
Mostly Cloudy 4400 ft
Overcast 5500 ft
Dew Point 50 °F
Humidity 80%
Rainfall 0.08 in
Snow Depth Not available.
UV 2 out of 12
Pollen Not available.
Air Quality Not available.
Flu Activity Not available.
METAR PAIL 041953Z 10016G26KT 10SM -RA FEW020 BKN044 OVC055 13/10 A2999 RMK AO2 PK WND 10026/1949 SLP157 P0000 T01330100

More Conditions Fewer Conditions

10-Day Weather Forecast

×

Almanac

Astronomy

Jul. 04, 2015 Rise Set
Actual Time
Civil Twilight
Nautical Twilight
Astronomical Twilight
Moon
Length of Visible Light
Length of Day
Tomorrow will be .
, % of the Moon is Illuminated

Today's Extremes

State Highs State Lows

Community

WunderPhotos

Upload Photos

1,835,091 photos uploaded!

WunderBlogs® & News

Nearby

Air Quality

  Air Quality AQ Index Pollutant
Not available.

Snow Depth

Station Depth Elevation

Earthquake Activity

City Distance Mag. Time & Date
Minimum magnitude displayed is 2.5.

Coastal Water Temperatures

Place Temperature

Stations

Nearby Weather Stations

Station Location Temp. Windchill Dew Point Humidity Wind Precip. Elev Updated Type